This is the latest recevied weather packets stored in our database for station/object GUNLAK-WX. If no packets are shown the sender has not sent any weather packets the latest 10 day(s).
| Time | Temp. | Humidity | Pressure | Rain* | Wind** | Luminosity | Snow |
|---|---|---|---|---|---|---|---|
| 1776961891 | 23.89° C | 68% | 985.6 hPa | 0 mm | - | - | - |
| 1776960976 | 23.33° C | 68% | 985.6 hPa | 0 mm | - | - | - |
| 1776960098 | 22.78° C | 68% | 985.6 hPa | 0 mm | - | - | - |
| 1776959176 | 21.67° C | 70% | 986 hPa | 0 mm | - | - | - |
| 1776958293 | 21.67° C | 72% | 986.1 hPa | 0 mm | - | - | - |
| 1776957376 | 20.56° C | 72% | 986.1 hPa | 0 mm | - | - | - |
| 1776956497 | 20.56° C | 72% | 986.1 hPa | 0 mm | - | - | - |
| 1776955576 | 20° C | 79% | 986.4 hPa | 0 mm | - | - | - |
| 1776954692 | 19.44° C | 78% | 986.6 hPa | 0 mm | - | - | - |
| 1776953776 | 18.33° C | 78% | 986.6 hPa | 0 mm | - | - | - |
| 1776952904 | 17.78° C | 78% | 986.6 hPa | 0 mm | - | - | - |
| 1776951975 | 17.22° C | 83% | 986.8 hPa | 0 mm | - | - | - |
| 1776951091 | 16.67° C | 83% | 986.8 hPa | 0 mm | - | - | - |
| 1776950176 | 16.11° C | 83% | 986.8 hPa | 0 mm | - | - | - |
| 1776949297 | 15.56° C | 83% | 986.8 hPa | 0 mm | - | - | - |
| 1776948375 | 15° C | 91% | 986.8 hPa | 0 mm | - | - | - |
| 1776947487 | 13.89° C | 91% | 986.5 hPa | 0 mm | - | - | - |
| 1776946575 | 12.78° C | 91% | 986.5 hPa | 0 mm | - | - | - |
| 1776945703 | 12.22° C | 91% | 986.5 hPa | 0 mm | - | - | - |
| 1776944775 | 11.67° C | 85% | 985.9 hPa | 0 mm | - | - | - |
| 1776943890 | 11.11° C | 86% | 986.5 hPa | 0 mm | - | - | - |
| 1776942975 | 11.67° C | 86% | 986.5 hPa | 0 mm | - | - | - |
| 1776942099 | 11.11° C | 86% | 986.5 hPa | 0 mm | - | - | - |
| 1776941175 | 11.11° C | 87% | 986.2 hPa | 0 mm | - | - | - |
| 1776940290 | 10.56° C | 87% | 986.2 hPa | 0 mm | - | - | - |
* Rain latest hour (hover to see other rain measurements)
** Current wind speed in m/s (hover to see current wind gust speed)